sensor_id;sensor_type;location;lat;lon;timestamp;noise_LAeq;noise_LA_min;noise_LA_max;noise_LA01;noise_LA95
70454;Laerm;57915;47.174;14.680;2023-12-20T00:00:24;41.63;38.61;44.76;;
70454;Laerm;57915;47.174;14.680;2023-12-20T00:01:33;50.91;39.64;63.92;;
70454;Laerm;57915;47.174;14.680;2023-12-20T00:02:42;58.41;42.58;65.09;;
70454;Laerm;57915;47.174;14.680;2023-12-20T00:03:53;43.81;40.10;47.04;;
70454;Laerm;57915;47.174;14.680;2023-12-20T00:04:53;42.15;39.29;44.42;;
70454;Laerm;57915;47.174;14.680;2023-12-20T00:05:57;42.19;38.90;44.79;;
70454;Laerm;57915;47.174;14.680;2023-12-20T00:06:58;41.65;38.18;44.39;;
70454;Laerm;57915;47.174;14.680;2023-12-20T00:08:00;41.38;37.63;46.84;;
70454;Laerm;57915;47.174;14.680;2023-12-20T00:09:00;40.88;38.27;43.48;;
70454;Laerm;57915;47.174;14.680;2023-12-20T00:10:02;41.25;38.23;44.03;;
70454;Laerm;57915;47.174;14.680;2023-12-20T00:11:03;40.70;37.81;44.57;;
70454;Laerm;57915;47.174;14.680;2023-12-20T00:12:05;41.36;38.22;44.14;;
70454;Laerm;57915;47.174;14.680;2023-12-20T00:13:06;41.40;38.42;44.22;;
70454;Laerm;57915;47.174;14.680;2023-12-20T00:14:08;52.49;39.44;63.26;;
70454;Laerm;57915;47.174;14.680;2023-12-20T00:15:09;52.24;41.93;62.74;;
70454;Laerm;57915;47.174;14.680;2023-12-20T00:16:12;43.69;40.77;46.61;;
70454;Laerm;57915;47.174;14.680;2023-12-20T00:17:18;43.14;40.62;45.37;;
70454;Laerm;57915;47.174;14.680;2023-12-20T00:18:20;42.76;39.97;45.36;;
70454;Laerm;57915;47.174;14.680;2023-12-20T00:19:22;42.73;39.84;45.21;;
70454;Laerm;57915;47.174;14.680;2023-12-20T00:20:24;40.74;37.48;44.38;;
70454;Laerm;57915;47.174;14.680;2023-12-20T00:21:25;40.70;37.74;42.95;;
70454;Laerm;57915;47.174;14.680;2023-12-20T00:22:28;39.96;37.54;42.88;;
70454;Laerm;57915;47.174;14.680;2023-12-20T00:23:29;41.14;38.02;44.16;;
70454;Laerm;57915;47.174;14.680;2023-12-20T00:24:29;40.51;37.60;43.45;;
70454;Laerm;57915;47.174;14.680;2023-12-20T00:25:31;55.36;38.79;68.03;;
70454;Laerm;57915;47.174;14.680;2023-12-20T00:26:32;54.44;38.69;67.78;;
70454;Laerm;57915;47.174;14.680;2023-12-20T00:27:32;41.84;38.86;44.80;;
70454;Laerm;57915;47.174;14.680;2023-12-20T00:28:37;40.85;38.18;43.46;;
70454;Laerm;57915;47.174;14.680;2023-12-20T00:29:38;40.73;37.86;43.28;;
70454;Laerm;57915;47.174;14.680;2023-12-20T00:30:39;41.11;38.44;44.42;;
70454;Laerm;57915;47.174;14.680;2023-12-20T00:31:41;43.16;39.90;47.51;;
70454;Laerm;57915;47.174;14.680;2023-12-20T00:32:45;42.71;38.78;46.40;;
70454;Laerm;57915;47.174;14.680;2023-12-20T00:33:47;42.96;39.50;47.47;;
70454;Laerm;57915;47.174;14.680;2023-12-20T00:34:48;42.92;40.38;46.15;;
70454;Laerm;57915;47.174;14.680;2023-12-20T00:35:49;41.78;39.10;46.74;;
70454;Laerm;57915;47.174;14.680;2023-12-20T00:36:57;41.73;39.03;45.09;;
70454;Laerm;57915;47.174;14.680;2023-12-20T00:37:58;56.05;39.50;69.62;;
70454;Laerm;57915;47.174;14.680;2023-12-20T00:39:00;41.28;37.41;45.87;;
70454;Laerm;57915;47.174;14.680;2023-12-20T00:40:08;40.60;37.88;43.02;;
70454;Laerm;57915;47.174;14.680;2023-12-20T00:41:10;43.08;39.23;45.83;;
70454;Laerm;57915;47.174;14.680;2023-12-20T00:42:10;57.60;39.20;71.71;;
70454;Laerm;57915;47.174;14.680;2023-12-20T00:43:18;42.01;38.62;45.42;;
70454;Laerm;57915;47.174;14.680;2023-12-20T00:44:18;40.80;37.74;43.79;;
70454;Laerm;57915;47.174;14.680;2023-12-20T00:45:19;40.96;37.99;44.91;;
70454;Laerm;57915;47.174;14.680;2023-12-20T00:46:20;40.53;36.71;46.40;;
70454;Laerm;57915;47.174;14.680;2023-12-20T00:47:22;41.19;38.19;44.12;;
70454;Laerm;57915;47.174;14.680;2023-12-20T00:48:29;41.38;38.63;44.49;;
70454;Laerm;57915;47.174;14.680;2023-12-20T00:49:34;44.08;39.42;50.33;;
70454;Laerm;57915;47.174;14.680;2023-12-20T00:50:34;51.51;42.88;64.93;;
70454;Laerm;57915;47.174;14.680;2023-12-20T00:51:37;56.71;39.12;66.65;;
70454;Laerm;57915;47.174;14.680;2023-12-20T00:52:38;40.36;36.98;43.12;;
70454;Laerm;57915;47.174;14.680;2023-12-20T00:53:45;39.58;37.03;42.85;;
70454;Laerm;57915;47.174;14.680;2023-12-20T00:54:51;39.93;36.86;44.59;;
70454;Laerm;57915;47.174;14.680;2023-12-20T00:55:56;39.71;36.86;43.79;;
70454;Laerm;57915;47.174;14.680;2023-12-20T00:56:58;39.49;37.12;42.39;;
70454;Laerm;57915;47.174;14.680;2023-12-20T00:58:00;40.48;36.96;45.37;;
70454;Laerm;57915;47.174;14.680;2023-12-20T00:59:00;39.47;35.63;44.79;;
70454;Laerm;57915;47.174;14.680;2023-12-20T01:00:12;39.28;36.19;43.10;;
70454;Laerm;57915;47.174;14.680;2023-12-20T01:01:20;39.64;36.57;42.60;;
70454;Laerm;57915;47.174;14.680;2023-12-20T01:02:23;39.38;36.69;41.91;;
70454;Laerm;57915;47.174;14.680;2023-12-20T01:03:27;38.92;35.30;42.83;;
70454;Laerm;57915;47.174;14.680;2023-12-20T01:04:28;38.92;34.91;46.02;;
70454;Laerm;57915;47.174;14.680;2023-12-20T01:05:30;40.39;36.87;44.60;;
70454;Laerm;57915;47.174;14.680;2023-12-20T01:06:33;46.61;37.82;53.78;;
70454;Laerm;57915;47.174;14.680;2023-12-20T01:07:37;44.41;38.81;50.67;;
70454;Laerm;57915;47.174;14.680;2023-12-20T01:08:38;40.28;35.81;45.59;;
70454;Laerm;57915;47.174;14.680;2023-12-20T01:09:39;37.64;33.63;44.08;;
70454;Laerm;57915;47.174;14.680;2023-12-20T01:10:40;37.47;33.33;42.10;;
70454;Laerm;57915;47.174;14.680;2023-12-20T01:11:42;35.40;32.84;38.99;;
70454;Laerm;57915;47.174;14.680;2023-12-20T01:12:58;34.53;31.74;38.71;;
70454;Laerm;57915;47.174;14.680;2023-12-20T01:14:00;36.40;32.85;42.54;;
70454;Laerm;57915;47.174;14.680;2023-12-20T01:15:01;38.81;35.16;43.74;;
70454;Laerm;57915;47.174;14.680;2023-12-20T01:16:04;46.52;35.69;53.33;;
70454;Laerm;57915;47.174;14.680;2023-12-20T01:17:08;42.41;36.60;50.88;;
70454;Laerm;57915;47.174;14.680;2023-12-20T01:18:11;35.95;33.03;40.84;;
70454;Laerm;57915;47.174;14.680;2023-12-20T01:19:18;36.02;33.26;39.41;;
70454;Laerm;57915;47.174;14.680;2023-12-20T01:20:19;38.40;35.18;41.96;;
70454;Laerm;57915;47.174;14.680;2023-12-20T01:21:20;40.09;37.36;42.99;;
70454;Laerm;57915;47.174;14.680;2023-12-20T01:22:24;39.61;36.41;45.10;;
70454;Laerm;57915;47.174;14.680;2023-12-20T01:23:25;55.23;36.07;67.74;;
70454;Laerm;57915;47.174;14.680;2023-12-20T01:24:28;39.51;36.24;45.21;;
70454;Laerm;57915;47.174;14.680;2023-12-20T01:25:35;37.77;35.24;42.96;;
70454;Laerm;57915;47.174;14.680;2023-12-20T01:26:36;37.64;35.18;40.21;;
70454;Laerm;57915;47.174;14.680;2023-12-20T01:27:38;38.17;35.52;42.59;;
70454;Laerm;57915;47.174;14.680;2023-12-20T01:28:41;37.82;35.44;43.50;;
70454;Laerm;57915;47.174;14.680;2023-12-20T01:29:43;37.46;34.48;41.13;;
70454;Laerm;57915;47.174;14.680;2023-12-20T01:30:43;38.40;35.87;40.79;;
70454;Laerm;57915;47.174;14.680;2023-12-20T01:31:49;39.09;36.69;42.61;;
70454;Laerm;57915;47.174;14.680;2023-12-20T01:33:08;39.42;36.97;43.23;;
70454;Laerm;57915;47.174;14.680;2023-12-20T01:34:14;39.81;36.87;43.67;;
70454;Laerm;57915;47.174;14.680;2023-12-20T01:35:25;39.62;37.22;42.07;;
70454;Laerm;57915;47.174;14.680;2023-12-20T01:36:26;40.46;37.76;43.16;;
70454;Laerm;57915;47.174;14.680;2023-12-20T01:37:33;41.49;38.09;47.27;;
70454;Laerm;57915;47.174;14.680;2023-12-20T01:38:34;40.81;38.20;43.50;;
70454;Laerm;57915;47.174;14.680;2023-12-20T01:39:35;42.26;38.98;44.99;;
70454;Laerm;57915;47.174;14.680;2023-12-20T01:40:44;57.27;39.40;71.85;;
70454;Laerm;57915;47.174;14.680;2023-12-20T01:41:45;57.90;37.60;71.16;;
70454;Laerm;57915;47.174;14.680;2023-12-20T01:42:47;55.04;37.85;68.03;;
70454;Laerm;57915;47.174;14.680;2023-12-20T01:43:48;42.72;39.79;47.02;;
70454;Laerm;57915;47.174;14.680;2023-12-20T01:44:49;44.91;39.61;52.79;;
70454;Laerm;57915;47.174;14.680;2023-12-20T01:45:50;41.61;38.06;48.19;;
70454;Laerm;57915;47.174;14.680;2023-12-20T01:46:57;41.72;38.51;46.82;;
70454;Laerm;57915;47.174;14.680;2023-12-20T01:47:58;41.81;38.55;44.63;;
70454;Laerm;57915;47.174;14.680;2023-12-20T01:49:03;41.82;39.08;44.91;;
70454;Laerm;57915;47.174;14.680;2023-12-20T01:50:06;41.75;39.09;44.50;;
70454;Laerm;57915;47.174;14.680;2023-12-20T01:51:10;43.53;40.44;48.13;;
70454;Laerm;57915;47.174;14.680;2023-12-20T01:52:11;43.60;40.73;46.40;;
70454;Laerm;57915;47.174;14.680;2023-12-20T01:53:12;43.05;39.76;46.03;;
70454;Laerm;57915;47.174;14.680;2023-12-20T01:54:14;42.51;39.63;45.06;;
70454;Laerm;57915;47.174;14.680;2023-12-20T01:55:15;41.69;38.42;46.00;;
70454;Laerm;57915;47.174;14.680;2023-12-20T01:56:16;42.53;38.85;48.50;;
70454;Laerm;57915;47.174;14.680;2023-12-20T01:57:18;39.66;36.47;44.46;;
70454;Laerm;57915;47.174;14.680;2023-12-20T01:58:20;39.82;36.64;44.44;;
70454;Laerm;57915;47.174;14.680;2023-12-20T01:59:22;40.87;37.52;45.53;;
70454;Laerm;57915;47.174;14.680;2023-12-20T02:00:23;40.24;36.90;43.03;;
70454;Laerm;57915;47.174;14.680;2023-12-20T02:01:26;41.46;37.96;43.84;;
70454;Laerm;57915;47.174;14.680;2023-12-20T02:02:28;42.05;39.32;44.24;;
70454;Laerm;57915;47.174;14.680;2023-12-20T02:03:30;41.99;38.51;45.15;;
70454;Laerm;57915;47.174;14.680;2023-12-20T02:04:32;51.23;41.06;60.55;;
70454;Laerm;57915;47.174;14.680;2023-12-20T02:05:34;58.46;47.59;64.67;;
70454;Laerm;57915;47.174;14.680;2023-12-20T02:06:36;44.40;38.37;52.10;;
70454;Laerm;57915;47.174;14.680;2023-12-20T02:07:54;39.83;37.33;42.81;;
70454;Laerm;57915;47.174;14.680;2023-12-20T02:08:56;44.91;38.25;51.56;;
70454;Laerm;57915;47.174;14.680;2023-12-20T02:09:57;60.02;47.43;68.51;;
70454;Laerm;57915;47.174;14.680;2023-12-20T02:10:59;53.72;43.75;63.05;;
70454;Laerm;57915;47.174;14.680;2023-12-20T02:12:03;43.71;38.30;50.98;;
70454;Laerm;57915;47.174;14.680;2023-12-20T02:13:05;43.09;38.92;46.84;;
70454;Laerm;57915;47.174;14.680;2023-12-20T02:14:05;56.13;39.96;68.77;;
70454;Laerm;57915;47.174;14.680;2023-12-20T02:15:06;42.11;39.11;45.30;;
70454;Laerm;57915;47.174;14.680;2023-12-20T02:16:08;42.70;39.41;46.34;;
70454;Laerm;57915;47.174;14.680;2023-12-20T02:17:09;48.16;38.98;56.52;;
70454;Laerm;57915;47.174;14.680;2023-12-20T02:18:14;52.04;47.49;58.30;;
70454;Laerm;57915;47.174;14.680;2023-12-20T02:19:19;45.92;39.76;53.67;;
70454;Laerm;57915;47.174;14.680;2023-12-20T02:20:27;42.01;38.13;45.82;;
70454;Laerm;57915;47.174;14.680;2023-12-20T02:21:33;56.20;38.28;70.19;;
70454;Laerm;57915;47.174;14.680;2023-12-20T02:22:35;42.65;38.23;46.44;;
70454;Laerm;57915;47.174;14.680;2023-12-20T02:23:35;44.32;40.88;47.63;;
70454;Laerm;57915;47.174;14.680;2023-12-20T02:24:41;48.60;42.74;55.60;;
70454;Laerm;57915;47.174;14.680;2023-12-20T02:25:50;50.40;40.11;57.05;;
70454;Laerm;57915;47.174;14.680;2023-12-20T02:26:52;43.46;39.18;47.89;;
70454;Laerm;57915;47.174;14.680;2023-12-20T02:27:53;42.24;38.99;46.31;;
70454;Laerm;57915;47.174;14.680;2023-12-20T02:28:55;43.52;39.91;47.66;;
70454;Laerm;57915;47.174;14.680;2023-12-20T02:29:55;42.83;38.06;46.57;;
70454;Laerm;57915;47.174;14.680;2023-12-20T02:30:57;40.33;37.49;43.35;;
70454;Laerm;57915;47.174;14.680;2023-12-20T02:32:00;49.97;39.19;56.53;;
70454;Laerm;57915;47.174;14.680;2023-12-20T02:33:02;54.94;48.84;59.39;;
70454;Laerm;57915;47.174;14.680;2023-12-20T02:34:04;56.40;38.95;69.60;;
70454;Laerm;57915;47.174;14.680;2023-12-20T02:35:05;41.77;38.79;45.45;;
70454;Laerm;57915;47.174;14.680;2023-12-20T02:36:06;42.50;38.01;45.42;;
70454;Laerm;57915;47.174;14.680;2023-12-20T02:37:09;41.95;38.01;47.72;;
70454;Laerm;57915;47.174;14.680;2023-12-20T02:38:11;43.07;39.99;47.16;;
70454;Laerm;57915;47.174;14.680;2023-12-20T02:39:11;40.41;37.14;44.09;;
70454;Laerm;57915;47.174;14.680;2023-12-20T02:40:13;40.89;37.53;44.06;;
70454;Laerm;57915;47.174;14.680;2023-12-20T02:41:13;40.41;37.90;42.77;;
70454;Laerm;57915;47.174;14.680;2023-12-20T02:42:21;41.66;38.31;45.05;;
70454;Laerm;57915;47.174;14.680;2023-12-20T02:43:24;41.90;38.26;45.83;;
70454;Laerm;57915;47.174;14.680;2023-12-20T02:44:26;41.84;37.75;46.80;;
70454;Laerm;57915;47.174;14.680;2023-12-20T02:45:29;40.83;36.90;44.61;;
70454;Laerm;57915;47.174;14.680;2023-12-20T02:46:45;42.39;37.81;48.04;;
70454;Laerm;57915;47.174;14.680;2023-12-20T02:47:46;41.47;38.58;48.32;;
70454;Laerm;57915;47.174;14.680;2023-12-20T02:48:47;42.24;38.59;46.70;;
70454;Laerm;57915;47.174;14.680;2023-12-20T02:49:47;43.26;39.18;50.23;;
70454;Laerm;57915;47.174;14.680;2023-12-20T02:50:49;42.94;39.38;48.00;;
70454;Laerm;57915;47.174;14.680;2023-12-20T02:51:51;42.64;39.03;47.70;;
70454;Laerm;57915;47.174;14.680;2023-12-20T02:52:53;41.75;38.62;47.30;;
70454;Laerm;57915;47.174;14.680;2023-12-20T02:53:55;57.16;37.02;70.42;;
70454;Laerm;57915;47.174;14.680;2023-12-20T02:54:55;41.10;37.58;46.18;;
70454;Laerm;57915;47.174;14.680;2023-12-20T02:56:06;41.16;36.59;47.49;;
70454;Laerm;57915;47.174;14.680;2023-12-20T02:57:06;43.61;39.28;49.24;;
70454;Laerm;57915;47.174;14.680;2023-12-20T02:58:08;53.04;45.71;59.47;;
70454;Laerm;57915;47.174;14.680;2023-12-20T02:59:08;52.13;40.98;59.68;;
70454;Laerm;57915;47.174;14.680;2023-12-20T03:00:10;41.75;38.19;46.36;;
70454;Laerm;57915;47.174;14.680;2023-12-20T03:01:11;42.04;38.18;47.16;;
70454;Laerm;57915;47.174;14.680;2023-12-20T03:02:12;42.55;38.84;48.75;;
70454;Laerm;57915;47.174;14.680;2023-12-20T03:03:13;42.29;37.93;49.38;;
70454;Laerm;57915;47.174;14.680;2023-12-20T03:04:15;41.64;39.12;46.46;;
70454;Laerm;57915;47.174;14.680;2023-12-20T03:05:15;41.89;39.35;46.02;;
70454;Laerm;57915;47.174;14.680;2023-12-20T03:06:17;42.60;39.15;46.99;;
70454;Laerm;57915;47.174;14.680;2023-12-20T03:07:19;42.92;39.40;48.33;;
70454;Laerm;57915;47.174;14.680;2023-12-20T03:08:25;40.91;37.87;46.55;;
70454;Laerm;57915;47.174;14.680;2023-12-20T03:09:37;43.67;38.31;54.33;;
70454;Laerm;57915;47.174;14.680;2023-12-20T03:10:37;54.74;39.02;66.75;;
70454;Laerm;57915;47.174;14.680;2023-12-20T03:11:42;42.75;40.23;46.04;;
70454;Laerm;57915;47.174;14.680;2023-12-20T03:12:45;43.20;39.97;46.92;;
70454;Laerm;57915;47.174;14.680;2023-12-20T03:13:55;55.07;37.83;68.81;;
70454;Laerm;57915;47.174;14.680;2023-12-20T03:14:55;40.40;36.14;49.40;;
70454;Laerm;57915;47.174;14.680;2023-12-20T03:15:57;58.06;37.72;71.30;;
70454;Laerm;57915;47.174;14.680;2023-12-20T03:17:00;55.58;37.89;68.46;;
70454;Laerm;57915;47.174;14.680;2023-12-20T03:18:02;41.60;37.53;45.29;;
70454;Laerm;57915;47.174;14.680;2023-12-20T03:19:03;43.38;40.27;47.45;;
70454;Laerm;57915;47.174;14.680;2023-12-20T03:20:04;44.99;41.19;52.27;;
70454;Laerm;57915;47.174;14.680;2023-12-20T03:21:09;46.19;40.19;55.29;;
70454;Laerm;57915;47.174;14.680;2023-12-20T03:22:09;62.64;41.51;74.28;;
70454;Laerm;57915;47.174;14.680;2023-12-20T03:23:11;46.17;39.33;53.37;;
70454;Laerm;57915;47.174;14.680;2023-12-20T03:24:13;42.03;38.00;48.54;;
70454;Laerm;57915;47.174;14.680;2023-12-20T03:25:15;42.49;37.35;48.00;;
70454;Laerm;57915;47.174;14.680;2023-12-20T03:26:18;54.87;38.57;67.17;;
70454;Laerm;57915;47.174;14.680;2023-12-20T03:27:19;42.17;38.43;50.26;;
70454;Laerm;57915;47.174;14.680;2023-12-20T03:28:25;42.39;38.49;46.84;;
70454;Laerm;57915;47.174;14.680;2023-12-20T03:29:30;56.98;38.94;70.19;;
70454;Laerm;57915;47.174;14.680;2023-12-20T03:30:43;52.32;38.87;65.66;;
70454;Laerm;57915;47.174;14.680;2023-12-20T03:31:44;60.38;39.65;74.19;;
70454;Laerm;57915;47.174;14.680;2023-12-20T03:32:46;60.49;40.15;74.43;;
70454;Laerm;57915;47.174;14.680;2023-12-20T03:33:47;54.99;40.00;66.45;;
70454;Laerm;57915;47.174;14.680;2023-12-20T03:34:48;57.00;39.44;71.32;;
70454;Laerm;57915;47.174;14.680;2023-12-20T03:35:49;54.18;40.28;67.85;;
70454;Laerm;57915;47.174;14.680;2023-12-20T03:36:51;56.39;40.02;69.03;;
70454;Laerm;57915;47.174;14.680;2023-12-20T03:37:51;53.95;40.42;69.97;;
70454;Laerm;57915;47.174;14.680;2023-12-20T03:38:53;53.10;39.68;69.46;;
70454;Laerm;57915;47.174;14.680;2023-12-20T03:39:59;61.21;39.32;71.99;;
70454;Laerm;57915;47.174;14.680;2023-12-20T03:40:59;44.42;38.97;55.44;;
70454;Laerm;57915;47.174;14.680;2023-12-20T03:42:08;57.45;43.53;68.11;;
70454;Laerm;57915;47.174;14.680;2023-12-20T03:43:09;55.36;44.67;65.73;;
70454;Laerm;57915;47.174;14.680;2023-12-20T03:44:11;60.53;42.02;73.20;;
70454;Laerm;57915;47.174;14.680;2023-12-20T03:45:11;56.38;40.41;69.84;;
70454;Laerm;57915;47.174;14.680;2023-12-20T03:46:13;43.64;38.57;51.95;;
70454;Laerm;57915;47.174;14.680;2023-12-20T03:47:14;54.84;40.85;70.95;;
70454;Laerm;57915;47.174;14.680;2023-12-20T03:48:16;57.89;40.29;70.55;;
70454;Laerm;57915;47.174;14.680;2023-12-20T03:49:16;42.99;39.42;48.74;;
70454;Laerm;57915;47.174;14.680;2023-12-20T03:50:29;45.05;41.06;50.34;;
70454;Laerm;57915;47.174;14.680;2023-12-20T03:51:31;54.58;39.51;67.03;;
70454;Laerm;57915;47.174;14.680;2023-12-20T03:52:33;59.34;41.63;69.47;;
70454;Laerm;57915;47.174;14.680;2023-12-20T03:53:33;61.41;40.44;72.25;;
70454;Laerm;57915;47.174;14.680;2023-12-20T03:54:40;55.26;38.69;68.50;;
70454;Laerm;57915;47.174;14.680;2023-12-20T03:55:48;57.81;39.63;70.47;;
70454;Laerm;57915;47.174;14.680;2023-12-20T03:56:55;54.23;40.36;65.96;;
70454;Laerm;57915;47.174;14.680;2023-12-20T03:57:56;63.98;39.07;75.28;;
70454;Laerm;57915;47.174;14.680;2023-12-20T03:58:57;42.83;39.16;46.89;;
70454;Laerm;57915;47.174;14.680;2023-12-20T03:59:58;57.56;41.13;71.03;;
70454;Laerm;57915;47.174;14.680;2023-12-20T04:01:01;58.24;42.13;71.49;;
70454;Laerm;57915;47.174;14.680;2023-12-20T04:02:04;61.14;40.02;74.44;;
70454;Laerm;57915;47.174;14.680;2023-12-20T04:03:06;53.38;39.87;65.17;;
70454;Laerm;57915;47.174;14.680;2023-12-20T04:04:07;57.80;40.73;72.15;;
70454;Laerm;57915;47.174;14.680;2023-12-20T04:05:10;54.89;41.70;67.12;;
70454;Laerm;57915;47.174;14.680;2023-12-20T04:06:16;44.80;41.03;54.08;;
70454;Laerm;57915;47.174;14.680;2023-12-20T04:07:34;57.15;42.24;68.95;;
70454;Laerm;57915;47.174;14.680;2023-12-20T04:08:36;57.00;41.67;70.04;;
70454;Laerm;57915;47.174;14.680;2023-12-20T04:09:37;53.63;39.58;68.46;;
70454;Laerm;57915;47.174;14.680;2023-12-20T04:10:41;61.61;41.19;72.32;;
70454;Laerm;57915;47.174;14.680;2023-12-20T04:11:43;56.44;38.96;70.10;;
70454;Laerm;57915;47.174;14.680;2023-12-20T04:12:45;44.16;38.35;51.59;;
70454;Laerm;57915;47.174;14.680;2023-12-20T04:13:45;61.44;42.47;73.00;;
70454;Laerm;57915;47.174;14.680;2023-12-20T04:14:47;43.35;39.50;48.48;;
70454;Laerm;57915;47.174;14.680;2023-12-20T04:15:48;57.54;41.30;70.13;;
70454;Laerm;57915;47.174;14.680;2023-12-20T04:16:51;59.34;41.09;71.71;;
70454;Laerm;57915;47.174;14.680;2023-12-20T04:17:52;58.67;41.82;71.72;;
70454;Laerm;57915;47.174;14.680;2023-12-20T04:18:53;58.27;41.46;72.58;;
70454;Laerm;57915;47.174;14.680;2023-12-20T04:19:56;45.85;38.85;51.85;;
70454;Laerm;57915;47.174;14.680;2023-12-20T04:20:57;55.47;39.53;67.94;;
70454;Laerm;57915;47.174;14.680;2023-12-20T04:21:59;43.51;39.08;48.17;;
70454;Laerm;57915;47.174;14.680;2023-12-20T04:23:00;59.79;41.56;69.70;;
70454;Laerm;57915;47.174;14.680;2023-12-20T04:24:02;60.28;46.39;69.03;;
70454;Laerm;57915;47.174;14.680;2023-12-20T04:25:03;45.91;39.51;56.71;;
70454;Laerm;57915;47.174;14.680;2023-12-20T04:26:05;61.56;41.92;71.04;;
70454;Laerm;57915;47.174;14.680;2023-12-20T04:27:07;63.18;40.44;75.43;;
70454;Laerm;57915;47.174;14.680;2023-12-20T04:28:11;62.58;43.58;72.33;;
70454;Laerm;57915;47.174;14.680;2023-12-20T04:29:12;61.10;41.93;70.97;;
70454;Laerm;57915;47.174;14.680;2023-12-20T04:30:15;46.35;39.66;55.45;;
70454;Laerm;57915;47.174;14.680;2023-12-20T04:31:19;63.17;42.37;75.08;;
70454;Laerm;57915;47.174;14.680;2023-12-20T04:32:21;60.12;40.20;72.52;;
70454;Laerm;57915;47.174;14.680;2023-12-20T04:33:21;61.46;42.12;70.92;;
70454;Laerm;57915;47.174;14.680;2023-12-20T04:34:32;61.60;41.45;70.85;;
70454;Laerm;57915;47.174;14.680;2023-12-20T04:35:32;64.80;44.28;72.58;;
70454;Laerm;57915;47.174;14.680;2023-12-20T04:36:37;59.66;43.56;72.23;;
70454;Laerm;57915;47.174;14.680;2023-12-20T04:37:38;61.17;41.05;72.53;;
70454;Laerm;57915;47.174;14.680;2023-12-20T04:38:39;60.16;40.79;73.15;;
70454;Laerm;57915;47.174;14.680;2023-12-20T04:39:47;62.04;42.85;70.29;;
70454;Laerm;57915;47.174;14.680;2023-12-20T04:40:47;52.03;40.84;67.02;;
70454;Laerm;57915;47.174;14.680;2023-12-20T04:41:49;64.54;47.22;72.89;;
70454;Laerm;57915;47.174;14.680;2023-12-20T04:42:54;63.65;44.38;72.42;;
70454;Laerm;57915;47.174;14.680;2023-12-20T04:43:59;43.58;40.03;49.95;;
70454;Laerm;57915;47.174;14.680;2023-12-20T04:45:00;43.98;41.25;47.87;;
70454;Laerm;57915;47.174;14.680;2023-12-20T04:46:03;57.35;41.90;71.31;;
70454;Laerm;57915;47.174;14.680;2023-12-20T04:47:07;59.60;42.89;70.75;;
70454;Laerm;57915;47.174;14.680;2023-12-20T04:48:08;63.53;45.40;74.25;;
70454;Laerm;57915;47.174;14.680;2023-12-20T04:49:12;48.40;41.93;58.25;;
70454;Laerm;57915;47.174;14.680;2023-12-20T04:50:13;63.14;41.95;72.22;;
70454;Laerm;57915;47.174;14.680;2023-12-20T04:51:14;63.02;40.94;74.63;;
70454;Laerm;57915;47.174;14.680;2023-12-20T04:52:16;45.66;41.71;50.82;;
70454;Laerm;57915;47.174;14.680;2023-12-20T04:53:17;58.28;41.83;71.32;;
70454;Laerm;57915;47.174;14.680;2023-12-20T04:54:18;58.90;41.96;71.75;;
70454;Laerm;57915;47.174;14.680;2023-12-20T04:55:28;60.19;43.17;73.41;;
70454;Laerm;57915;47.174;14.680;2023-12-20T04:56:30;61.75;42.28;73.91;;
70454;Laerm;57915;47.174;14.680;2023-12-20T04:57:31;55.52;41.51;68.46;;
70454;Laerm;57915;47.174;14.680;2023-12-20T04:58:36;60.82;40.74;70.88;;
70454;Laerm;57915;47.174;14.680;2023-12-20T04:59:37;43.60;40.95;46.14;;
70454;Laerm;57915;47.174;14.680;2023-12-20T05:00:37;57.14;40.48;70.86;;
70454;Laerm;57915;47.174;14.680;2023-12-20T05:01:39;45.30;41.89;49.13;;
70454;Laerm;57915;47.174;14.680;2023-12-20T05:02:42;64.10;41.86;76.39;;
70454;Laerm;57915;47.174;14.680;2023-12-20T05:03:50;59.42;42.22;72.90;;
70454;Laerm;57915;47.174;14.680;2023-12-20T05:04:51;60.59;43.39;72.15;;
70454;Laerm;57915;47.174;14.680;2023-12-20T05:06:07;62.28;45.43;75.06;;
70454;Laerm;57915;47.174;14.680;2023-12-20T05:07:08;55.53;44.35;68.20;;
70454;Laerm;57915;47.174;14.680;2023-12-20T05:08:09;57.58;44.28;70.74;;
70454;Laerm;57915;47.174;14.680;2023-12-20T05:09:10;50.50;42.02;65.27;;
70454;Laerm;57915;47.174;14.680;2023-12-20T05:10:23;54.01;44.90;66.95;;
70454;Laerm;57915;47.174;14.680;2023-12-20T05:11:27;58.67;44.67;70.42;;
70454;Laerm;57915;47.174;14.680;2023-12-20T05:12:28;58.46;42.27;71.84;;
70454;Laerm;57915;47.174;14.680;2023-12-20T05:13:29;62.24;45.59;74.86;;
70454;Laerm;57915;47.174;14.680;2023-12-20T05:14:35;46.98;42.68;57.85;;
70454;Laerm;57915;47.174;14.680;2023-12-20T05:15:36;59.97;42.35;73.15;;
70454;Laerm;57915;47.174;14.680;2023-12-20T05:16:38;64.99;45.34;74.56;;
70454;Laerm;57915;47.174;14.680;2023-12-20T05:17:38;61.94;44.57;71.04;;
70454;Laerm;57915;47.174;14.680;2023-12-20T05:18:43;46.76;43.54;50.12;;
70454;Laerm;57915;47.174;14.680;2023-12-20T05:19:44;62.88;44.09;74.38;;
70454;Laerm;57915;47.174;14.680;2023-12-20T05:20:46;59.83;44.92;73.51;;
70454;Laerm;57915;47.174;14.680;2023-12-20T05:21:46;58.38;46.72;70.85;;
70454;Laerm;57915;47.174;14.680;2023-12-20T05:22:48;47.10;42.45;53.23;;
70454;Laerm;57915;47.174;14.680;2023-12-20T05:23:51;58.84;43.70;69.66;;
70454;Laerm;57915;47.174;14.680;2023-12-20T05:24:55;60.16;45.22;72.59;;
70454;Laerm;57915;47.174;14.680;2023-12-20T05:25:56;56.76;45.67;69.44;;
70454;Laerm;57915;47.174;14.680;2023-12-20T05:26:57;57.89;44.86;70.69;;
70454;Laerm;57915;47.174;14.680;2023-12-20T05:27:58;51.18;42.23;64.21;;
70454;Laerm;57915;47.174;14.680;2023-12-20T05:28:59;58.36;43.35;71.80;;
70454;Laerm;57915;47.174;14.680;2023-12-20T05:30:11;63.86;50.27;73.65;;
70454;Laerm;57915;47.174;14.680;2023-12-20T05:31:30;55.55;44.79;66.41;;
70454;Laerm;57915;47.174;14.680;2023-12-20T05:32:32;60.51;46.30;69.84;;
70454;Laerm;57915;47.174;14.680;2023-12-20T05:33:32;60.47;47.57;68.37;;
70454;Laerm;57915;47.174;14.680;2023-12-20T05:34:36;54.56;45.78;68.63;;
70454;Laerm;57915;47.174;14.680;2023-12-20T05:35:40;58.89;45.65;70.21;;
70454;Laerm;57915;47.174;14.680;2023-12-20T05:36:41;64.81;51.17;74.54;;
70454;Laerm;57915;47.174;14.680;2023-12-20T05:37:42;50.33;42.94;61.68;;
70454;Laerm;57915;47.174;14.680;2023-12-20T05:38:52;58.56;43.35;73.30;;
70454;Laerm;57915;47.174;14.680;2023-12-20T05:39:56;65.84;47.58;79.65;;
70454;Laerm;57915;47.174;14.680;2023-12-20T05:41:04;60.34;50.59;70.59;;
70454;Laerm;57915;47.174;14.680;2023-12-20T05:42:07;62.63;44.15;73.14;;
70454;Laerm;57915;47.174;14.680;2023-12-20T05:43:09;63.46;42.31;77.45;;
70454;Laerm;57915;47.174;14.680;2023-12-20T05:44:10;56.41;43.48;67.21;;
70454;Laerm;57915;47.174;14.680;2023-12-20T05:45:16;59.96;43.54;71.87;;
70454;Laerm;57915;47.174;14.680;2023-12-20T05:46:16;60.80;44.45;70.41;;
70454;Laerm;57915;47.174;14.680;2023-12-20T05:47:18;59.31;44.77;69.02;;